createdAt,value
2019-03-05T00:02:09.715Z,22.99
2019-03-05T00:07:18.626Z,20.61
2019-03-05T00:12:27.536Z,28.99
2019-03-05T00:17:36.423Z,22.95
2019-03-05T00:22:45.294Z,29.76
2019-03-05T00:27:54.213Z,24.69
2019-03-05T00:33:03.057Z,20.98
2019-03-05T00:38:11.997Z,22.35
2019-03-05T00:43:20.900Z,26.54
2019-03-05T00:48:29.763Z,20.97
2019-03-05T00:53:38.621Z,21.03
2019-03-05T00:58:47.508Z,18.64
2019-03-05T01:03:56.470Z,19.95
2019-03-05T01:09:05.351Z,19.94
2019-03-05T01:14:14.272Z,18.71
2019-03-05T01:24:27.432Z,19.83
2019-03-05T01:29:36.304Z,18.23
2019-03-05T01:34:45.248Z,20.39
2019-03-05T01:39:54.121Z,16.94
2019-03-05T01:45:02.999Z,18.06
2019-03-05T01:50:11.975Z,18.15
2019-03-05T01:55:20.836Z,20.54
2019-03-05T02:00:29.753Z,25.39
2019-03-05T02:05:38.606Z,15.68
2019-03-05T02:10:47.508Z,15.55
2019-03-05T02:15:56.419Z,16.35
2019-03-05T02:21:05.390Z,14.03
2019-03-05T02:26:14.282Z,21.46
2019-03-05T02:31:23.205Z,15.41
2019-03-05T02:36:32.067Z,12.76
2019-03-05T02:41:40.914Z,13.02
2019-03-05T02:46:49.837Z,16.57
2019-03-05T02:51:58.666Z,11.38
2019-03-05T02:57:07.599Z,13.62
2019-03-05T03:02:16.476Z,12.25
2019-03-05T03:07:25.386Z,15.34
2019-03-05T03:12:34.239Z,16.50
2019-03-05T03:17:43.159Z,15.23
2019-03-05T03:22:52.034Z,15.48
2019-03-05T03:28:00.954Z,13.48
2019-03-05T03:33:09.872Z,13.06
2019-03-05T03:38:18.753Z,12.39
2019-03-05T03:43:27.688Z,10.15
2019-03-05T03:48:36.522Z,12.85
2019-03-05T03:53:45.401Z,11.60
2019-03-05T03:58:54.289Z,10.52
2019-03-05T04:04:03.194Z,12.39
2019-03-05T04:09:12.170Z,12.10
2019-03-05T04:14:21.069Z,15.07
2019-03-05T04:19:29.973Z,9.11
2019-03-05T04:24:38.840Z,12.13
2019-03-05T04:29:47.757Z,10.93
2019-03-05T04:34:56.659Z,12.06
2019-03-05T04:40:05.555Z,17.15
2019-03-05T04:45:14.401Z,13.11
2019-03-05T04:50:23.291Z,13.93
2019-03-05T04:55:32.159Z,12.65
2019-03-05T05:00:41.074Z,9.93
2019-03-05T05:05:49.944Z,20.65
2019-03-05T05:10:58.927Z,19.11
2019-03-05T05:16:07.814Z,15.61
2019-03-05T05:21:16.728Z,16.49
2019-03-05T05:26:25.544Z,11.98
2019-03-05T05:31:34.422Z,18.00
2019-03-05T05:36:43.311Z,24.59
2019-03-05T05:41:52.233Z,15.44
2019-03-05T05:47:01.073Z,13.33
2019-03-05T05:52:09.928Z,26.54
2019-03-05T05:57:18.761Z,50.75
2019-03-05T06:03:01.687Z,27.11
2019-03-05T06:08:00.607Z,18.34
2019-03-05T06:13:09.486Z,15.54
2019-03-05T06:18:18.384Z,17.44
2019-03-05T06:23:27.275Z,16.76
2019-03-05T06:28:36.164Z,25.86
2019-03-05T06:33:45.108Z,19.81
2019-03-05T06:38:54.022Z,11.98
2019-03-05T06:44:02.929Z,16.45
2019-03-05T06:49:11.832Z,12.99
2019-03-05T06:54:20.775Z,13.49
2019-03-05T06:59:29.687Z,13.82
2019-03-05T07:04:38.582Z,14.81
2019-03-05T07:09:47.509Z,22.18
2019-03-05T07:14:56.434Z,17.16
2019-03-05T07:20:05.301Z,16.00
2019-03-05T07:25:14.232Z,14.03
2019-03-05T07:30:23.171Z,15.40
2019-03-05T07:35:32.031Z,13.15
2019-03-05T07:40:40.949Z,8.98
2019-03-05T07:45:49.807Z,9.84
2019-03-05T07:50:58.733Z,11.37
2019-03-05T07:56:07.612Z,12.54
2019-03-05T08:01:22.152Z,12.65
2019-03-05T08:06:24.982Z,16.50
2019-03-05T08:11:33.897Z,10.82
2019-03-05T08:16:42.833Z,10.44
2019-03-05T08:21:51.783Z,10.09
2019-03-05T08:27:00.723Z,13.15
2019-03-05T08:32:09.671Z,10.33
2019-03-05T08:37:18.601Z,10.18
2019-03-05T08:42:27.468Z,11.73
2019-03-05T08:47:36.317Z,9.16
2019-03-05T08:52:45.227Z,13.42
2019-03-05T08:57:54.111Z,8.83
2019-03-05T09:03:02.993Z,9.35
2019-03-05T09:08:11.950Z,10.20
2019-03-05T09:13:32.004Z,8.40
2019-03-05T09:18:29.327Z,12.07
2019-03-05T09:23:38.239Z,9.07
2019-03-05T09:28:47.109Z,9.79
2019-03-05T09:33:55.973Z,8.37
2019-03-05T09:39:04.887Z,8.43
2019-03-05T09:44:13.833Z,7.36
2019-03-05T09:49:22.724Z,10.15
2019-03-05T09:54:31.634Z,8.79
2019-03-05T09:59:40.559Z,9.71
2019-03-05T10:04:49.499Z,10.05
2019-03-05T10:09:58.420Z,7.89
2019-03-05T10:15:07.385Z,8.86
2019-03-05T10:20:16.273Z,9.89
2019-03-05T10:25:25.269Z,10.67
2019-03-05T10:30:34.160Z,9.94
2019-03-05T10:35:43.052Z,7.80
2019-03-05T10:40:51.934Z,10.27
2019-03-05T10:46:00.883Z,9.30
2019-03-05T10:51:09.776Z,9.70
2019-03-05T10:56:18.723Z,9.44
2019-03-05T11:01:27.641Z,11.13
2019-03-05T11:06:36.524Z,10.45
2019-03-05T11:11:45.446Z,13.08
2019-03-05T11:16:54.316Z,9.22
2019-03-05T11:22:03.256Z,8.98
2019-03-05T11:27:12.176Z,7.92
2019-03-05T11:32:21.140Z,7.94
2019-03-05T11:37:29.988Z,9.95
2019-03-05T11:42:38.947Z,7.66
2019-03-05T11:47:47.845Z,8.45
2019-03-05T11:52:56.731Z,9.41
2019-03-05T11:58:05.620Z,9.49
2019-03-05T12:03:14.565Z,10.94
2019-03-05T12:08:23.433Z,11.78
2019-03-05T12:13:32.422Z,8.31
2019-03-05T12:18:41.397Z,7.43
2019-03-05T12:23:50.336Z,7.36
2019-03-05T12:28:59.196Z,9.42
2019-03-05T12:34:08.120Z,5.35
2019-03-05T12:39:17.004Z,7.21
2019-03-05T12:44:25.900Z,8.84
2019-03-05T12:49:34.795Z,6.76
2019-03-05T12:54:43.663Z,8.05
2019-03-05T12:59:52.629Z,7.90
2019-03-05T13:05:01.535Z,6.15
2019-03-05T13:10:10.571Z,7.38
2019-03-05T13:15:19.486Z,6.44
2019-03-05T13:20:28.471Z,6.44
2019-03-05T13:25:38.420Z,9.09
2019-03-05T13:30:45.843Z,7.98
2019-03-05T13:35:54.811Z,6.73
2019-03-05T13:41:03.692Z,6.49
2019-03-05T13:46:12.595Z,7.14
2019-03-05T13:51:23.169Z,6.17
2019-03-05T13:56:29.920Z,8.15
2019-03-05T14:01:38.806Z,9.61
2019-03-05T14:06:48.153Z,9.93
2019-03-05T14:11:56.300Z,7.54
2019-03-05T14:17:07.027Z,6.90
2019-03-05T14:22:13.762Z,6.49
2019-03-05T14:27:22.697Z,8.11
2019-03-05T14:32:31.570Z,7.59
2019-03-05T14:37:40.501Z,8.37
2019-03-05T14:42:49.365Z,11.83
2019-03-05T14:47:58.325Z,8.88
2019-03-05T14:53:07.164Z,7.89
2019-03-05T14:58:16.048Z,9.62
2019-03-05T15:03:25.020Z,9.21
2019-03-05T15:08:33.969Z,7.22
2019-03-05T15:13:42.904Z,9.85
2019-03-05T15:18:51.792Z,8.59
2019-03-05T15:24:00.694Z,10.64
2019-03-05T15:29:09.607Z,11.11
2019-03-05T15:34:18.583Z,8.20
2019-03-05T15:39:27.406Z,8.89
2019-03-05T15:44:36.372Z,6.77
2019-03-05T15:49:45.219Z,9.71
2019-03-05T15:54:54.155Z,9.25
2019-03-05T16:00:03.051Z,9.51
2019-03-05T16:05:12.382Z,10.07
2019-03-05T16:10:20.435Z,8.86
2019-03-05T16:15:29.398Z,8.17
2019-03-05T16:20:38.351Z,7.59
2019-03-05T16:25:50.264Z,6.75
2019-03-05T16:30:55.706Z,10.59
2019-03-05T16:36:04.645Z,8.80
2019-03-05T16:41:16.987Z,10.20
2019-03-05T16:46:22.099Z,10.32
2019-03-05T16:51:31.051Z,14.12
2019-03-05T16:56:39.982Z,10.29
2019-03-05T17:01:48.990Z,12.76
2019-03-05T17:06:57.915Z,7.60
2019-03-05T17:12:06.825Z,9.89
2019-03-05T17:17:15.729Z,22.72
2019-03-05T17:22:24.648Z,20.04
2019-03-05T17:27:33.518Z,19.32
2019-03-05T17:32:42.420Z,16.33
2019-03-05T17:37:51.321Z,11.31
2019-03-05T17:43:00.235Z,14.76
2019-03-05T17:48:09.093Z,12.39
2019-03-05T17:53:17.995Z,14.66
2019-03-05T17:58:26.904Z,12.26
2019-03-05T18:03:35.841Z,14.08
2019-03-05T18:08:44.700Z,18.65
2019-03-05T18:13:53.602Z,15.74
2019-03-05T18:19:02.468Z,16.39
2019-03-05T18:24:11.378Z,13.29
2019-03-05T18:29:20.213Z,17.80
2019-03-05T18:34:29.163Z,14.15
2019-03-05T18:39:38.014Z,12.34
2019-03-05T18:44:46.915Z,14.54
2019-03-05T18:49:55.900Z,17.40
2019-03-05T18:55:04.845Z,15.24
2019-03-05T19:00:13.777Z,14.88
2019-03-05T19:05:22.633Z,14.32
2019-03-05T19:10:31.580Z,14.17
2019-03-05T19:15:40.396Z,18.42
2019-03-05T19:20:49.351Z,18.14
2019-03-05T19:25:58.217Z,18.07
2019-03-05T19:31:07.153Z,21.85
2019-03-05T19:36:16.031Z,16.41
2019-03-05T19:41:24.982Z,16.76
2019-03-05T19:46:33.875Z,16.06
2019-03-05T19:51:42.763Z,19.44
2019-03-05T19:56:51.629Z,18.85
2019-03-05T20:02:00.566Z,14.54
2019-03-05T20:07:09.450Z,20.68
2019-03-05T20:12:18.544Z,19.41
2019-03-05T20:17:27.413Z,21.13
2019-03-05T20:22:36.451Z,19.53
2019-03-05T20:27:45.316Z,17.82
2019-03-05T20:32:54.314Z,19.14
2019-03-05T20:38:03.159Z,24.79
2019-03-05T20:43:12.127Z,20.74
2019-03-05T20:48:21.011Z,16.86
2019-03-05T20:53:29.940Z,17.29
2019-03-05T20:58:38.822Z,14.80
2019-03-05T21:03:47.748Z,16.18
2019-03-05T21:08:56.628Z,15.25
2019-03-05T21:14:05.508Z,13.32
2019-03-05T21:19:14.357Z,16.19
2019-03-05T21:24:23.268Z,15.35
2019-03-05T21:29:32.155Z,16.63
2019-03-05T21:34:41.113Z,12.77
2019-03-05T21:39:49.963Z,15.41
2019-03-05T21:44:58.849Z,11.54
2019-03-05T21:50:07.720Z,14.04
2019-03-05T21:55:16.624Z,16.03
2019-03-05T22:00:25.515Z,14.51
2019-03-05T22:05:34.400Z,14.85
2019-03-05T22:10:43.269Z,14.38
2019-03-05T22:15:52.147Z,13.51
2019-03-05T22:21:01.037Z,12.41
2019-03-05T22:26:09.964Z,14.78
2019-03-05T22:31:18.828Z,15.50
2019-03-05T22:36:27.704Z,16.66
2019-03-05T22:41:38.270Z,12.05
2019-03-05T22:46:45.056Z,14.00
2019-03-05T22:51:53.923Z,10.93
2019-03-05T22:57:03.412Z,11.08
2019-03-05T23:02:12.299Z,16.40
2019-03-05T23:07:21.200Z,11.54
2019-03-05T23:12:30.072Z,13.13
2019-03-05T23:17:38.981Z,12.61
2019-03-05T23:22:47.879Z,12.81
2019-03-05T23:27:56.772Z,12.66
2019-03-05T23:33:05.692Z,11.01
2019-03-05T23:38:14.657Z,12.13
2019-03-05T23:43:23.557Z,12.18
2019-03-05T23:48:32.524Z,11.01
2019-03-05T23:53:41.381Z,10.61
2019-03-05T23:58:50.308Z,11.91
